Time;durP1;ratioP1;P1;durP2;ratioP2;P2;SDS_P1;SDS_P2;PMS_P1;PMS_P2;Temp;Humidity;BMP_temperature;BMP_pressure;BME280_temperature;BME280_humidity;BME280_pressure;Samples;Min_cycle;Max_cycle;Signal;HPM_P1;HPM_P2
2022/06/13 00:01:11;;;;;;;9.10;3.65;;;15.20;65.80;;;;;;4935144;28;20035;-80
2022/06/13 00:03:37;;;;;;;8.40;2.70;;;15.10;65.20;;;;;;4926900;28;20041;-81
2022/06/13 00:06:03;;;;;;;5.75;2.50;;;15.10;63.40;;;;;;4962188;28;20560;-80
2022/06/13 00:08:30;;;;;;;4.90;2.38;;;15.10;63.60;;;;;;4950254;28;20037;-80
2022/06/13 00:10:55;;;;;;;5.45;2.05;;;15.10;63.50;;;;;;4944699;28;20035;-81
2022/06/13 00:13:21;;;;;;;12.27;2.85;;;15.20;63.80;;;;;;4949183;28;20400;-80
2022/06/13 00:15:46;;;;;;;5.70;2.45;;;15.20;64.00;;;;;;4962708;28;20109;-80
2022/06/13 00:18:12;;;;;;;5.70;2.20;;;15.20;65.30;;;;;;4963286;28;20064;-80
2022/06/13 00:20:37;;;;;;;6.35;2.05;;;15.30;65.90;;;;;;4931958;28;20031;-80
2022/06/13 00:23:03;;;;;;;6.20;2.33;;;15.20;65.40;;;;;;4965328;28;20039;-80
2022/06/13 00:25:29;;;;;;;6.13;1.90;;;15.00;64.90;;;;;;4947734;28;20041;-81
2022/06/13 00:27:55;;;;;;;5.05;2.20;;;15.00;65.80;;;;;;4959900;28;20124;-80
2022/06/13 00:30:21;;;;;;;2.40;1.58;;;15.00;65.70;;;;;;4949595;28;20070;-80
2022/06/13 00:32:47;;;;;;;3.13;2.10;;;14.90;65.40;;;;;;4960016;28;20490;-80
2022/06/13 00:35:12;;;;;;;3.25;1.70;;;14.80;65.30;;;;;;4961222;28;20496;-80
2022/06/13 00:37:38;;;;;;;6.45;2.03;;;14.70;65.40;;;;;;4964408;28;20117;-80
2022/06/13 00:40:05;;;;;;;4.22;2.15;;;14.70;66.30;;;;;;4962967;28;20034;-80
2022/06/13 00:42:30;;;;;;;5.35;2.22;;;14.70;65.90;;;;;;4949401;28;20767;-80
2022/06/13 00:45:14;;;;;;;4.78;2.08;;;14.60;66.80;;;;;;4947298;28;20118;-80
2022/06/13 00:47:41;;;;;;;5.28;2.10;;;14.60;66.50;;;;;;4965606;28;20030;-80
2022/06/13 00:50:09;;;;;;;5.78;2.53;;;14.50;66.30;;;;;;4964469;28;20063;-80
2022/06/13 00:52:43;;;;;;;5.60;2.05;;;14.40;66.20;;;;;;4943756;28;20637;-80
2022/06/13 00:55:13;;;;;;;4.90;2.22;;;14.40;66.50;;;;;;4949868;28;20402;-80
2022/06/13 00:57:39;;;;;;;8.18;2.40;;;14.30;66.60;;;;;;4966013;28;20066;-80
2022/06/13 01:00:07;;;;;;;4.00;1.83;;;14.30;67.00;;;;;;4948553;28;20464;-80
2022/06/13 01:02:33;;;;;;;3.38;2.10;;;14.30;67.00;;;;;;4949622;28;20133;-80
2022/06/13 01:04:59;;;;;;;4.22;1.95;;;14.30;67.10;;;;;;4959719;28;20460;-80
2022/06/13 01:07:24;;;;;;;8.85;2.40;;;14.30;67.30;;;;;;4949571;28;20031;-80
2022/06/13 01:12:35;;;;;;;4.47;1.85;;;14.10;67.30;;;;;;4958849;28;20101;-80
2022/06/13 01:15:09;;;;;;;5.10;2.10;;;14.20;68.10;;;;;;4959036;28;20035;-80
2022/06/13 01:17:39;;;;;;;5.72;2.22;;;14.10;67.50;;;;;;4965700;28;20585;-80
2022/06/13 01:20:45;;;;;;;3.65;1.85;;;14.10;67.90;;;;;;4959009;28;20303;-80
2022/06/13 01:23:41;;;;;;;3.05;1.90;;;14.00;67.90;;;;;;4961845;28;20041;-80
2022/06/13 01:26:44;;;;;;;3.97;2.40;;;13.90;69.00;;;;;;4966479;28;20035;-80
2022/06/13 01:29:28;;;;;;;4.93;2.00;;;13.90;69.50;;;;;;4954812;28;20046;-80
2022/06/13 01:32:04;;;;;;;7.00;1.88;;;13.80;69.80;;;;;;4961711;28;20387;-80
2022/06/13 01:34:45;;;;;;;3.67;1.92;;;13.90;70.80;;;;;;4958682;28;20486;-80
2022/06/13 01:37:19;;;;;;;5.35;2.10;;;14.00;71.30;;;;;;4955460;28;20047;-80
2022/06/13 01:39:52;;;;;;;4.63;1.90;;;14.10;72.70;;;;;;4966762;28;20138;-80
2022/06/13 01:42:34;;;;;;;6.00;2.10;;;13.90;71.70;;;;;;4960453;28;20059;-80
2022/06/13 01:45:05;;;;;;;4.15;2.10;;;13.80;71.20;;;;;;4963302;28;20077;-80
2022/06/13 01:47:42;;;;;;;4.85;2.45;;;13.70;71.60;;;;;;4979792;28;20065;-79
2022/06/13 01:50:32;;;;;;;3.03;2.00;;;13.60;70.80;;;;;;4965876;28;20039;-79
2022/06/13 01:53:08;;;;;;;5.90;2.72;;;13.60;71.60;;;;;;4959711;28;20031;-79
2022/06/13 01:55:47;;;;;;;8.98;2.85;;;13.70;72.60;;;;;;4959652;28;20135;-79
2022/06/13 01:58:27;;;;;;;7.30;2.55;;;13.60;71.20;;;;;;4964013;28;20047;-79
2022/06/13 02:01:34;;;;;;;4.25;2.17;;;13.60;72.30;;;;;;4964724;28;20037;-79
2022/06/13 02:04:02;;;;;;;2.83;1.60;;;13.70;72.40;;;;;;4869074;29;20625;-80
2022/06/13 02:06:31;;;;;;;7.35;2.30;;;13.80;73.60;;;;;;4964441;28;20137;-80
2022/06/13 02:09:02;;;;;;;5.85;2.58;;;13.80;73.70;;;;;;4954972;28;20039;-80
2022/06/13 02:11:33;;;;;;;5.13;2.38;;;13.60;73.20;;;;;;4950365;28;20042;-79
2022/06/13 02:14:03;;;;;;;5.50;2.33;;;13.50;72.20;;;;;;4966240;28;20038;-80
2022/06/13 02:16:39;;;;;;;4.63;2.58;;;13.50;73.20;;;;;;4948324;28;20039;-79
2022/06/13 02:19:17;;;;;;;;;;;13.40;71.80;;;;;;4958108;28;20043;-79
2022/06/13 02:21:44;;;;;;;5.90;2.88;;;13.40;72.30;;;;;;4959958;28;20017;-79
2022/06/13 02:24:13;;;;;;;8.73;2.53;;;13.50;73.60;;;;;;4961711;28;20550;-80
2022/06/13 02:26:38;;;;;;;4.20;2.15;;;13.50;73.40;;;;;;4925834;28;20487;-80
2022/06/13 02:29:14;;;;;;;5.15;2.20;;;13.30;71.80;;;;;;4947771;28;20035;-79
2022/06/13 02:31:43;;;;;;;6.85;2.97;;;13.30;72.80;;;;;;4961792;28;20035;-80
2022/06/13 02:34:19;;;;;;;3.40;1.98;;;13.40;73.30;;;;;;4965633;28;20057;-79
2022/06/13 02:36:55;;;;;;;;;;;13.30;73.80;;;;;;4949220;28;20499;-79
2022/06/13 02:39:31;;;;;;;5.88;2.70;;;13.20;74.00;;;;;;4960790;28;19910;-78
2022/06/13 02:42:16;;;;;;;4.70;2.47;;;13.20;73.20;;;;;;4948795;28;20045;-78
2022/06/13 02:44:44;;;;;;;3.67;2.28;;;13.30;73.80;;;;;;4952540;28;20042;-78
2022/06/13 02:47:43;;;;;;;10.18;2.35;;;13.30;74.60;;;;;;4947972;28;20089;-78
2022/06/13 02:50:15;;;;;;;5.45;2.45;;;13.20;74.70;;;;;;4969288;28;20039;-78
2022/06/13 02:52:49;;;;;;;4.68;2.10;;;13.40;74.60;;;;;;4950497;28;20391;-78
2022/06/13 02:55:15;;;;;;;5.15;2.22;;;13.40;74.80;;;;;;4961041;28;20108;-78
2022/06/13 02:58:05;;;;;;;4.30;2.45;;;13.30;74.80;;;;;;4931446;28;20039;-78
2022/06/13 03:00:57;;;;;;;6.30;3.30;;;13.20;74.90;;;;;;4958073;28;20041;-78
2022/06/13 03:03:41;;;;;;;3.53;2.00;;;13.20;75.60;;;;;;4946640;28;20081;-78
2022/06/13 03:06:09;;;;;;;7.93;2.70;;;13.10;76.10;;;;;;4963075;28;20038;-78
2022/06/13 03:08:55;;;;;;;5.05;2.22;;;13.00;75.80;;;;;;4959492;28;20037;-78
2022/06/13 03:11:48;;;;;;;4.38;1.80;;;12.90;74.90;;;;;;4950307;28;20462;-78
2022/06/13 03:14:19;;;;;;;5.55;2.50;;;12.90;74.20;;;;;;4965728;28;20027;-78
2022/06/13 03:17:04;;;;;;;6.20;2.47;;;13.00;75.50;;;;;;4967788;28;20086;-78
2022/06/13 03:19:54;;;;;;;7.93;2.83;;;13.20;76.60;;;;;;4966495;28;20053;-78
2022/06/13 03:22:30;;;;;;;4.75;2.40;;;13.20;76.70;;;;;;4947041;28;20114;-78
2022/06/13 03:25:14;;;;;;;8.68;2.92;;;13.30;75.40;;;;;;4966159;28;20030;-78
2022/06/13 03:28:03;;;;;;;11.38;3.38;;;13.20;75.30;;;;;;4968586;28;20110;-78
2022/06/13 03:30:30;;;;;;;2.70;1.73;;;13.10;75.50;;;;;;4950356;28;20092;-79
2022/06/13 03:35:46;;;;;;;5.38;2.90;;;13.20;76.90;;;;;;4965901;28;20933;-79
2022/06/13 03:38:21;;;;;;;7.35;2.70;;;13.30;77.70;;;;;;4948385;28;20031;-79
2022/06/13 03:40:49;;;;;;;8.32;3.58;;;13.20;77.10;;;;;;4936502;28;20030;-78
2022/06/13 03:43:26;;;;;;;6.47;2.65;;;13.30;77.10;;;;;;4936515;28;20589;-78
2022/06/13 03:46:19;;;;;;;4.50;2.25;;;13.40;77.50;;;;;;4951025;28;20428;-78
2022/06/13 03:48:57;;;;;;;4.18;2.25;;;13.50;77.90;;;;;;4931065;28;20455;-78
2022/06/13 03:51:30;;;;;;;5.45;2.53;;;13.70;77.60;;;;;;4958180;28;20128;-78
2022/06/13 03:54:03;;;;;;;6.85;2.97;;;13.60;77.50;;;;;;4948420;28;20035;-78
2022/06/13 03:56:28;;;;;;;9.52;3.47;;;13.50;78.80;;;;;;4960391;28;20050;-78
2022/06/13 03:59:07;;;;;;;6.15;2.72;;;13.40;78.20;;;;;;4967239;28;20039;-78
2022/06/13 04:01:38;;;;;;;6.18;2.53;;;13.30;77.40;;;;;;4959843;28;20034;-78
2022/06/13 04:04:04;;;;;;;7.35;2.20;;;13.20;79.10;;;;;;4947949;28;20038;-78
2022/06/13 04:06:32;;;;;;;4.97;1.95;;;13.20;78.10;;;;;;4962906;28;20078;-78
2022/06/13 04:08:58;;;;;;;12.18;3.15;;;13.50;78.90;;;;;;4959983;28;20098;-78
2022/06/13 04:11:51;;;;;;;6.88;2.53;;;13.40;78.60;;;;;;4948510;28;20512;-78
2022/06/13 04:14:35;;;;;;;12.07;3.00;;;13.40;78.80;;;;;;4967259;28;20049;-78
2022/06/13 04:17:09;;;;;;;12.63;3.95;;;13.40;79.10;;;;;;4958822;28;20041;-78
2022/06/13 04:19:53;;;;;;;11.75;3.40;;;13.50;80.50;;;;;;4967154;28;20086;-78
2022/06/13 04:22:27;;;;;;;7.88;2.97;;;13.50;83.00;;;;;;4962834;28;20455;-78
2022/06/13 04:25:03;;;;;;;8.23;2.78;;;13.40;79.70;;;;;;4967389;28;20035;-79
2022/06/13 04:27:47;;;;;;;10.18;3.50;;;13.50;81.00;;;;;;4948254;28;20065;-78
2022/06/13 04:30:17;;;;;;;6.72;3.25;;;13.50;79.80;;;;;;4966219;28;20043;-78
2022/06/13 04:33:08;;;;;;;8.05;3.67;;;13.60;81.60;;;;;;4949895;28;20035;-78
2022/06/13 04:35:33;;;;;;;7.72;3.85;;;13.50;81.70;;;;;;4956850;28;20282;-78
2022/06/13 04:38:02;;;;;;;7.03;2.95;;;13.50;82.50;;;;;;4947683;28;20089;-78
2022/06/13 04:40:28;;;;;;;7.20;3.15;;;13.70;80.60;;;;;;4948966;28;20565;-78
2022/06/13 04:42:54;;;;;;;7.50;3.67;;;13.80;81.70;;;;;;4942068;28;20104;-78
2022/06/13 04:45:23;;;;;;;12.55;3.45;;;13.80;81.60;;;;;;4948927;28;20041;-79
2022/06/13 04:47:49;;;;;;;8.75;2.80;;;13.80;81.50;;;;;;4945608;28;20162;-78
2022/06/13 04:50:16;;;;;;;9.93;3.75;;;13.70;80.40;;;;;;4948946;28;20129;-78
2022/06/13 04:52:42;;;;;;;8.20;3.60;;;13.70;81.30;;;;;;4932383;28;20038;-78
2022/06/13 04:55:23;;;;;;;8.52;3.63;;;13.70;79.60;;;;;;4276272;28;10000482;-78
2022/06/13 04:57:48;;;;;;;7.75;2.83;;;13.90;80.00;;;;;;4945559;28;20614;-79
2022/06/13 05:00:14;;;;;;;14.88;4.00;;;13.90;79.80;;;;;;4949498;28;20138;-78
2022/06/13 05:02:45;;;;;;;8.75;3.42;;;13.90;79.40;;;;;;4948129;28;20394;-78
2022/06/13 05:05:41;;;;;;;11.77;4.55;;;13.90;81.80;;;;;;4948299;28;20039;-79
2022/06/13 05:08:26;;;;;;;16.08;5.15;;;13.90;81.60;;;;;;4951179;28;20034;-79
2022/06/13 05:10:55;;;;;;;8.00;3.58;;;13.80;83.80;;;;;;4941770;28;20568;-79
2022/06/13 05:13:20;;;;;;;10.85;3.40;;;13.70;83.60;;;;;;4947756;28;20035;-78
2022/06/13 05:15:48;;;;;;;9.32;3.58;;;13.70;82.30;;;;;;4962375;28;20105;-78
2022/06/13 05:18:32;;;;;;;12.98;4.70;;;13.80;82.60;;;;;;4946975;28;20028;-78
2022/06/13 05:20:58;;;;;;;9.80;2.75;;;13.90;80.60;;;;;;4960132;28;20027;-78
2022/06/13 05:23:33;;;;;;;10.55;4.65;;;13.90;80.20;;;;;;4965702;28;20418;-78
2022/06/13 05:25:59;;;;;;;7.72;3.35;;;13.90;82.50;;;;;;4959367;28;20503;-78
2022/06/13 05:28:29;;;;;;;12.73;3.97;;;14.00;81.70;;;;;;4952639;28;20027;-78
2022/06/13 05:30:56;;;;;;;10.65;3.47;;;14.10;82.30;;;;;;4947440;28;20030;-78
2022/06/13 05:33:26;;;;;;;5.82;2.92;;;14.20;82.30;;;;;;4962304;28;20134;-79
2022/06/13 05:35:54;;;;;;;10.07;4.03;;;14.20;80.50;;;;;;4964022;28;20062;-79
2022/06/13 05:38:28;;;;;;;11.27;4.03;;;14.10;81.20;;;;;;4943396;28;20031;-78
2022/06/13 05:40:54;;;;;;;10.38;4.53;;;14.30;81.90;;;;;;4947351;28;20046;-79
2022/06/13 05:43:20;;;;;;;7.47;3.38;;;14.30;82.50;;;;;;4945464;28;20501;-78
2022/06/13 05:45:45;;;;;;;7.88;2.85;;;14.30;81.90;;;;;;4927343;28;20404;-79
2022/06/13 05:48:13;;;;;;;11.07;3.22;;;14.30;81.90;;;;;;4958691;28;20034;-79
2022/06/13 05:50:38;;;;;;;10.40;3.72;;;14.20;82.20;;;;;;4948437;28;20035;-79
2022/06/13 05:53:04;;;;;;;6.68;2.60;;;14.20;84.80;;;;;;4947232;28;20089;-79
2022/06/13 05:55:30;;;;;;;10.48;3.50;;;14.20;82.30;;;;;;4946612;28;20042;-79
2022/06/13 05:57:56;;;;;;;11.95;4.45;;;14.00;84.40;;;;;;4943400;28;20613;-79
2022/06/13 06:00:24;;;;;;;8.25;3.88;;;14.00;89.40;;;;;;4948518;28;20498;-79
2022/06/13 06:02:50;;;;;;;10.55;4.35;;;14.00;86.30;;;;;;4946482;28;20035;-80
2022/06/13 06:05:16;;;;;;;9.73;4.82;;;13.90;83.10;;;;;;4960616;28;20031;-79
2022/06/13 06:07:41;;;;;;;15.73;5.55;;;13.90;83.60;;;;;;4947930;28;20430;-79
2022/06/13 06:10:10;;;;;;;12.18;4.28;;;13.80;82.40;;;;;;4933657;28;20098;-79
2022/06/13 06:12:36;;;;;;;7.68;3.40;;;13.80;83.30;;;;;;4945145;28;20376;-79
2022/06/13 06:21:45;;;;;;;8.20;2.90;;;14.20;84.60;;;;;;4971910;28;20450;-79
2022/06/13 06:24:11;;;;;;;6.97;2.95;;;14.30;86.70;;;;;;4960551;28;20032;-79
2022/06/13 06:26:37;;;;;;;4.93;2.97;;;14.40;85.90;;;;;;4950654;28;20042;-79
2022/06/13 06:29:03;;;;;;;6.13;2.53;;;14.30;84.00;;;;;;4965432;28;20121;-80
2022/06/13 06:31:28;;;;;;;9.43;3.63;;;14.30;84.60;;;;;;4965358;28;20118;-80
2022/06/13 06:33:54;;;;;;;4.63;2.53;;;14.40;85.50;;;;;;4963340;28;20453;-79
2022/06/13 06:36:19;;;;;;;12.48;4.72;;;14.40;84.50;;;;;;4962819;28;20687;-79
2022/06/13 06:38:45;;;;;;;8.20;2.65;;;14.60;87.70;;;;;;4951884;28;20038;-79
2022/06/13 06:41:11;;;;;;;5.78;3.50;;;14.70;85.00;;;;;;4964247;28;20126;-79
2022/06/13 06:43:37;;;;;;;10.38;4.57;;;14.90;86.00;;;;;;4967374;28;20173;-79
2022/06/13 07:09:25;;;;;;;9.88;3.70;;;17.60;89.30;;;;;;5082995;23;20046;-79
2022/06/13 07:11:53;;;;;;;8.85;4.47;;;17.90;85.80;;;;;;4903369;28;20032;-79
2022/06/13 07:14:28;;;;;;;13.23;4.38;;;18.00;86.00;;;;;;4933678;29;20313;-78
2022/06/13 07:16:54;;;;;;;12.05;5.30;;;18.20;87.20;;;;;;4933139;28;20034;-78
2022/06/13 07:19:19;;;;;;;9.05;5.15;;;18.30;85.10;;;;;;4932852;28;20037;-78
2022/06/13 07:21:45;;;;;;;9.50;5.40;;;18.20;85.70;;;;;;4935377;28;24177;-78
2022/06/13 07:24:10;;;;;;;13.95;7.35;;;18.50;88.70;;;;;;4933035;29;20046;-78
2022/06/13 07:26:37;;;;;;;10.40;6.35;;;18.70;90.30;;;;;;4921958;28;20386;-78
2022/06/13 07:29:03;;;;;;;17.00;9.48;;;18.70;85.20;;;;;;4915174;28;20450;-78
2022/06/13 07:31:40;;;;;;;16.50;8.75;;;18.80;86.40;;;;;;4932670;28;20126;-78
2022/06/13 07:34:07;;;;;;;16.33;10.05;;;19.00;87.60;;;;;;4920234;28;20058;-78
2022/06/13 07:36:33;;;;;;;28.95;15.75;;;19.00;87.00;;;;;;4932163;29;20035;-78
2022/06/13 07:38:58;;;;;;;20.25;13.82;;;19.10;90.50;;;;;;4932978;29;20027;-78
2022/06/13 07:41:24;;;;;;;33.13;17.70;;;19.20;90.10;;;;;;4932639;28;20031;-78
2022/06/13 07:43:52;;;;;;;30.90;17.70;;;19.40;90.80;;;;;;4933053;28;20035;-78
2022/06/13 07:46:18;;;;;;;27.85;14.55;;;19.90;92.60;;;;;;4929346;28;20039;-78
2022/06/13 07:48:47;;;;;;;19.45;14.52;;;20.10;90.70;;;;;;4923956;28;20040;-78
2022/06/13 07:51:13;;;;;;;28.58;19.63;;;20.50;91.60;;;;;;4915689;28;20039;-78
2022/06/13 07:53:39;;;;;;;23.25;16.23;;;20.80;92.40;;;;;;4935445;29;20055;-78
2022/06/13 07:56:04;;;;;;;24.30;12.70;;;21.10;92.00;;;;;;4938395;28;20597;-78
2022/06/13 07:58:36;;;;;;;20.42;12.50;;;21.10;87.20;;;;;;4931004;28;20031;-78
2022/06/13 08:01:04;;;;;;;22.35;13.32;;;21.20;85.50;;;;;;4935486;28;20665;-79
2022/06/13 08:03:30;;;;;;;21.25;15.10;;;21.60;90.00;;;;;;4918453;28;20042;-79
2022/06/13 08:05:56;;;;;;;24.40;15.73;;;21.60;89.10;;;;;;4918097;28;20462;-78
2022/06/13 08:08:22;;;;;;;27.70;18.70;;;21.60;88.50;;;;;;4933838;28;20101;-78
2022/06/13 08:10:49;;;;;;;22.58;16.15;;;21.80;89.60;;;;;;4933480;28;20027;-78
2022/06/13 08:13:16;;;;;;;22.83;14.23;;;22.10;89.40;;;;;;4908057;28;20383;-78
2022/06/13 08:15:42;;;;;;;26.33;15.25;;;22.40;84.90;;;;;;4916926;28;20027;-79
2022/06/13 08:18:07;;;;;;;17.33;12.55;;;22.80;88.30;;;;;;4916259;28;20628;-79
2022/06/13 08:20:33;;;;;;;21.58;12.20;;;23.00;86.50;;;;;;4916155;28;20045;-79
2022/06/13 08:23:00;;;;;;;19.20;11.98;;;23.00;84.20;;;;;;4900536;28;20028;-79
2022/06/13 08:25:27;;;;;;;22.13;14.93;;;23.00;81.10;;;;;;4916326;29;20038;-79
2022/06/13 08:27:54;;;;;;;15.25;11.77;;;23.00;84.50;;;;;;4915474;28;20082;-79
2022/06/13 08:30:20;;;;;;;19.45;15.13;;;22.90;81.50;;;;;;4930490;28;20053;-79
2022/06/13 08:32:46;;;;;;;23.73;13.48;;;22.70;82.70;;;;;;4935506;28;20035;-79
2022/06/13 08:35:12;;;;;;;23.85;13.82;;;22.70;82.30;;;;;;4904360;28;20126;-78
2022/06/13 08:37:37;;;;;;;24.35;14.48;;;22.70;81.30;;;;;;4905122;28;20034;-79
2022/06/13 08:40:03;;;;;;;18.75;13.20;;;22.70;81.90;;;;;;4916246;28;20102;-79
2022/06/13 08:42:48;;;;;;;18.60;11.57;;;22.60;81.00;;;;;;4935246;28;20035;-79
2022/06/13 08:45:24;;;;;;;12.23;8.93;;;22.70;81.80;;;;;;4917971;28;20031;-79
2022/06/13 08:48:12;;;;;;;15.80;8.68;;;22.70;80.40;;;;;;4901737;29;20036;-79
2022/06/13 08:50:53;;;;;;;20.80;10.80;;;22.80;81.40;;;;;;4909770;29;20391;-79
2022/06/13 08:53:24;;;;;;;15.38;9.77;;;23.00;81.20;;;;;;4920185;28;20027;-79
2022/06/13 08:55:59;;;;;;;14.52;9.57;;;22.90;78.80;;;;;;4890453;29;20483;-79
2022/06/13 08:58:46;;;;;;;20.70;12.40;;;22.90;79.00;;;;;;4902970;29;20391;-79
2022/06/13 09:01:38;;;;;;;14.55;9.85;;;22.90;78.90;;;;;;4931791;28;20046;-79
2022/06/13 09:04:10;;;;;;;23.15;11.98;;;23.00;78.00;;;;;;4926590;28;20023;-79
2022/06/13 09:06:49;;;;;;;15.57;10.32;;;23.00;78.00;;;;;;4933552;28;20980;-79
2022/06/13 09:09:19;;;;;;;19.35;12.88;;;23.10;78.60;;;;;;4912045;28;20045;-79
2022/06/13 09:12:06;;;;;;;19.35;10.40;;;23.30;78.40;;;;;;4931674;29;20051;-79
2022/06/13 09:14:35;;;;;;;14.27;8.77;;;23.20;78.20;;;;;;4916909;29;20042;-79
2022/06/13 09:17:39;;;;;;;17.92;10.10;;;23.10;76.80;;;;;;4922808;29;20031;-79
2022/06/13 09:20:17;;;;;;;24.58;10.55;;;23.40;78.10;;;;;;4920425;28;20554;-79
2022/06/13 09:22:46;;;;;;;14.68;6.95;;;23.40;77.90;;;;;;4917745;29;20657;-79
2022/06/13 09:25:23;;;;;;;10.88;5.35;;;23.40;76.00;;;;;;4915076;29;20525;-79
2022/06/13 09:28:09;;;;;;;9.52;4.28;;;23.30;76.10;;;;;;4936756;28;20683;-79
2022/06/13 09:30:37;;;;;;;9.90;4.47;;;23.40;75.00;;;;;;4915068;28;20062;-79
2022/06/13 09:33:08;;;;;;;12.07;4.68;;;23.40;74.40;;;;;;4902273;28;20569;-79
2022/06/13 09:35:49;;;;;;;6.90;4.38;;;23.40;74.40;;;;;;4915833;28;20035;-79
2022/06/13 09:38:26;;;;;;;8.85;4.95;;;23.60;72.50;;;;;;4912137;29;20043;-79
2022/06/13 09:41:04;;;;;;;9.60;5.07;;;23.90;73.30;;;;;;4920563;29;20495;-79
2022/06/13 09:44:09;;;;;;;10.75;4.50;;;24.50;72.60;;;;;;4933136;29;20046;-79
2022/06/13 09:46:42;;;;;;;12.05;5.00;;;24.80;70.30;;;;;;4911089;28;20554;-79
2022/06/13 09:49:16;;;;;;;13.98;4.45;;;24.70;70.30;;;;;;4925022;28;20521;-79
2022/06/13 09:51:48;;;;;;;13.40;3.85;;;24.80;68.40;;;;;;4956955;28;20066;-79
2022/06/13 09:54:53;;;;;;;11.95;3.85;;;24.60;68.30;;;;;;4957212;28;20055;-79
2022/06/13 09:57:40;;;;;;;6.35;3.17;;;24.60;69.00;;;;;;4923211;28;20528;-80
2022/06/13 10:00:12;;;;;;;9.80;3.17;;;24.60;67.40;;;;;;4940310;28;20031;-80
2022/06/13 10:03:33;;;;;;;8.75;3.17;;;24.60;67.80;;;;;;4928115;29;20035;-80
2022/06/13 10:06:20;;;;;;;9.23;3.30;;;24.40;67.20;;;;;;4857060;29;20037;-79
2022/06/13 10:08:58;;;;;;;7.05;2.75;;;24.40;65.00;;;;;;4925366;28;20047;-80
2022/06/13 10:11:27;;;;;;;6.75;3.03;;;24.10;65.80;;;;;;4921779;29;20118;-80
2022/06/13 10:14:06;;;;;;;7.05;2.97;;;24.20;65.10;;;;;;4952104;28;20634;-80
2022/06/13 10:16:34;;;;;;;8.38;3.00;;;24.10;66.50;;;;;;4958953;28;20031;-80
2022/06/13 10:19:16;;;;;;;8.27;2.83;;;24.30;65.90;;;;;;4921110;29;20035;-80
2022/06/13 10:21:49;;;;;;;9.27;3.28;;;24.40;64.90;;;;;;4923450;28;20042;-80
2022/06/13 10:24:21;;;;;;;7.32;2.28;;;24.50;64.10;;;;;;4907091;28;20382;-80
2022/06/13 10:27:08;;;;;;;7.57;2.83;;;24.70;63.10;;;;;;4935600;29;20074;-80
2022/06/13 10:29:49;;;;;;;5.28;2.50;;;24.90;64.20;;;;;;4940790;28;20102;-80
2022/06/13 10:32:39;;;;;;;7.90;2.75;;;25.00;62.30;;;;;;4957404;28;20466;-80
2022/06/13 10:35:23;;;;;;;8.45;2.88;;;25.10;62.30;;;;;;4941781;28;20035;-81
2022/06/13 10:38:11;;;;;;;7.45;2.60;;;25.10;61.10;;;;;;4943402;28;20050;-81
2022/06/13 10:40:40;;;;;;;8.98;3.20;;;25.10;61.80;;;;;;4947279;28;20032;-81
2022/06/13 10:43:06;;;;;;;8.80;2.70;;;25.00;62.40;;;;;;4927663;28;20069;-80
2022/06/13 10:45:33;;;;;;;7.40;2.75;;;25.10;62.00;;;;;;4908007;28;20067;-81
2022/06/13 10:48:06;;;;;;;8.02;2.33;;;25.30;59.10;;;;;;4928662;28;20038;-81
2022/06/13 10:50:46;;;;;;;7.93;2.50;;;25.40;59.90;;;;;;4940649;28;20043;-81
2022/06/13 10:53:47;;;;;;;11.18;2.55;;;25.70;60.60;;;;;;4904346;28;20394;-81
2022/06/13 10:56:16;;;;;;;7.38;1.90;;;26.30;61.40;;;;;;4853785;29;20066;-82
2022/06/13 10:58:50;;;;;;;4.82;1.77;;;26.70;59.90;;;;;;4929860;28;20039;-82
2022/06/13 11:01:20;;;;;;;4.43;1.50;;;26.60;58.50;;;;;;4905126;28;20042;-82
2022/06/13 11:04:06;;;;;;;10.50;1.92;;;26.60;56.90;;;;;;4916010;29;20451;-82
2022/06/13 11:06:41;;;;;;;3.47;1.42;;;26.70;57.40;;;;;;4919247;28;20541;-82
2022/06/13 11:09:21;;;;;;;7.78;1.38;;;27.20;57.20;;;;;;4928079;28;20154;-83
2022/06/13 11:11:46;;;;;;;7.03;1.88;;;27.60;54.90;;;;;;4907725;29;20491;-83
2022/06/13 11:22:37;;;;;;;5.88;1.85;;;27.20;56.00;;;;;;4907450;28;20074;-84
2022/06/13 11:23:05;;;;;;;5.47;1.17;;;27.00;54.90;;;;;;4927905;28;20042;-84
2022/06/13 11:25:32;;;;;;;11.07;2.40;;;27.10;54.80;;;;;;4909708;28;20039;-84
2022/06/13 11:28:11;;;;;;;4.38;1.33;;;26.90;53.70;;;;;;4907078;28;20039;-84
2022/06/13 11:30:41;;;;;;;6.45;1.83;;;27.00;52.60;;;;;;4907507;29;20050;-84
2022/06/13 11:33:09;;;;;;;4.75;1.33;;;26.90;54.00;;;;;;4919000;28;20039;-84
2022/06/13 11:35:40;;;;;;;6.57;1.38;;;26.50;52.50;;;;;;4937472;28;20776;-84
2022/06/13 11:38:36;;;;;;;5.70;1.38;;;26.40;51.50;;;;;;4913866;28;20488;-84
2022/06/13 11:41:36;;;;;;;3.88;1.00;;;26.00;52.80;;;;;;4912089;28;20050;-84
2022/06/13 11:44:06;;;;;;;4.15;1.30;;;26.20;54.10;;;;;;4921772;28;20031;-84
2022/06/13 11:46:53;;;;;;;6.72;1.15;;;26.60;53.40;;;;;;4917796;28;20130;-84
2022/06/13 11:49:44;;;;;;;4.90;1.30;;;26.90;53.40;;;;;;4937829;28;20042;-84
2022/06/13 11:52:09;;;;;;;4.78;1.65;;;27.30;53.30;;;;;;4924636;28;20039;-85
2022/06/13 11:54:48;;;;;;;5.78;1.50;;;27.10;52.90;;;;;;4938626;28;20063;-85
2022/06/13 11:57:33;;;;;;;3.28;1.30;;;27.10;52.10;;;;;;4951703;28;20039;-84
2022/06/13 12:00:12;;;;;;;3.93;1.03;;;26.80;50.50;;;;;;4919175;28;20031;-85
2022/06/13 12:03:27;;;;;;;4.78;1.38;;;26.90;53.50;;;;;;4937401;28;20463;-85
2022/06/13 12:06:07;;;;;;;5.53;1.73;;;27.10;52.00;;;;;;4879217;28;20039;-85
2022/06/13 12:08:32;;;;;;;2.67;0.93;;;27.30;53.00;;;;;;4911212;28;20058;-85
2022/06/13 12:11:19;;;;;;;2.88;1.20;;;27.70;52.20;;;;;;4910276;28;20043;-85
2022/06/13 12:13:45;;;;;;;5.70;1.08;;;28.00;52.30;;;;;;4908702;28;20043;-85
2022/06/13 12:16:20;;;;;;;3.17;1.10;;;28.20;50.00;;;;;;4908867;28;20036;-85
2022/06/13 12:19:02;;;;;;;3.00;1.15;;;28.20;50.90;;;;;;4937946;28;20058;-85
2022/06/13 12:21:55;;;;;;;3.13;0.88;;;28.50;50.90;;;;;;4919968;28;20525;-85
2022/06/13 12:24:44;;;;;;;3.00;0.98;;;28.60;49.90;;;;;;4904321;29;20556;-85
2022/06/13 12:27:11;;;;;;;1.88;0.80;;;28.90;46.60;;;;;;4902113;29;20035;-83
2022/06/13 12:29:57;;;;;;;2.55;0.68;;;28.90;47.50;;;;;;4955192;28;20093;-83
2022/06/13 12:32:23;;;;;;;1.55;0.55;;;29.20;48.60;;;;;;4925869;28;20110;-82
2022/06/13 12:35:00;;;;;;;3.70;0.90;;;29.50;48.10;;;;;;4948442;28;20448;-82
2022/06/13 12:37:53;;;;;;;4.68;0.60;;;29.60;46.20;;;;;;4933186;28;20035;-81
2022/06/13 12:40:31;;;;;;;4.35;0.63;;;29.70;46.40;;;;;;4917866;28;20662;-80
2022/06/13 12:43:21;;;;;;;2.25;0.63;;;29.70;45.00;;;;;;4920278;28;20493;-80
2022/06/13 12:46:22;;;;;;;4.50;0.80;;;29.90;46.00;;;;;;4950420;28;20043;-79
2022/06/13 12:49:09;;;;;;;2.65;0.60;;;30.20;46.80;;;;;;4919955;28;20035;-78
2022/06/13 12:51:53;;;;;;;3.42;0.82;;;30.10;43.90;;;;;;4921143;28;20494;-79
2022/06/13 12:54:39;;;;;;;4.93;0.90;;;30.20;43.40;;;;;;4947853;28;20059;-79
2022/06/13 12:57:29;;;;;;;1.70;0.57;;;30.50;43.80;;;;;;4914252;28;20106;-79
2022/06/13 13:00:15;;;;;;;3.00;0.90;;;30.40;44.40;;;;;;4932521;28;20023;-79
2022/06/13 13:03:17;;;;;;;6.38;0.85;;;30.40;42.50;;;;;;4919386;28;20125;-78
2022/06/13 13:05:51;;;;;;;5.32;0.80;;;30.40;43.00;;;;;;4929926;29;20027;-78
2022/06/13 13:08:45;;;;;;;4.50;0.60;;;30.70;41.40;;;;;;4948342;28;20042;-78
2022/06/13 13:11:21;;;;;;;2.83;0.68;;;30.80;43.50;;;;;;4931689;28;20114;-77
2022/06/13 13:14:07;;;;;;;1.30;0.70;;;31.20;43.10;;;;;;4931380;29;20039;-78
2022/06/13 13:16:45;;;;;;;3.35;0.90;;;31.10;44.70;;;;;;4937043;28;20097;-78
2022/06/13 13:19:19;;;;;;;3.75;0.50;;;31.40;43.30;;;;;;4922826;28;20023;-78
2022/06/13 13:21:57;;;;;;;2.17;0.63;;;31.50;43.20;;;;;;4920233;28;20035;-77
2022/06/13 13:24:39;;;;;;;4.63;1.02;;;31.40;43.30;;;;;;4919576;28;20408;-78
2022/06/13 13:27:11;;;;;;;4.28;0.85;;;32.00;42.20;;;;;;4925068;29;20042;-77
2022/06/13 13:29:46;;;;;;;4.00;0.75;;;32.10;42.30;;;;;;4906537;28;20054;-78
2022/06/13 13:32:12;;;;;;;;;;;31.80;42.00;;;;;;4920214;28;20561;-77
2022/06/13 13:34:57;;;;;;;;;;;31.40;42.10;;;;;;4926636;28;20001;-77
2022/06/13 13:37:41;;;;;;;1.98;0.60;;;31.40;41.20;;;;;;4950773;28;19949;-77
2022/06/13 13:40:42;;;;;;;4.72;0.88;;;31.60;40.80;;;;;;4912922;28;20035;-78
2022/06/13 13:43:29;;;;;;;2.70;0.70;;;31.60;42.50;;;;;;4916277;28;20087;-77
2022/06/13 13:46:39;;;;;;;2.42;0.70;;;31.90;42.10;;;;;;4950253;28;20035;-77
2022/06/13 13:49:06;;;;;;;2.25;0.73;;;31.80;42.50;;;;;;4842882;29;20037;-77
2022/06/13 13:51:48;;;;;;;3.35;0.75;;;31.80;40.90;;;;;;4899324;28;20459;-78
2022/06/13 13:54:18;;;;;;;2.67;0.80;;;31.80;40.10;;;;;;4931829;28;20035;-77
2022/06/13 13:56:43;;;;;;;4.30;0.90;;;32.00;40.60;;;;;;4935016;28;20036;-77
2022/06/13 13:59:11;;;;;;;2.40;1.00;;;31.70;40.50;;;;;;4935970;28;20157;-78
2022/06/13 14:01:38;;;;;;;4.35;0.60;;;31.60;39.80;;;;;;4916665;28;20042;-77
2022/06/13 14:04:11;;;;;;;1.52;0.75;;;31.50;40.40;;;;;;4934871;28;20035;-77